createdAt,value
2022-11-16T00:01:02.743Z,11.13
2022-11-16T00:03:30.447Z,11.06
2022-11-16T00:05:57.995Z,11.02
2022-11-16T00:08:24.778Z,11.02
2022-11-16T00:10:51.457Z,11.04
2022-11-16T00:13:17.995Z,11.08
2022-11-16T00:15:44.521Z,11.12
2022-11-16T00:18:11.029Z,11.15
2022-11-16T00:20:38.461Z,11.18
2022-11-16T00:23:07.790Z,11.19
2022-11-16T00:25:37.363Z,11.22
2022-11-16T00:28:06.298Z,11.22
2022-11-16T00:30:34.839Z,11.23
2022-11-16T00:33:04.896Z,11.24
2022-11-16T00:35:33.793Z,11.24
2022-11-16T00:38:00.308Z,11.27
2022-11-16T00:40:29.382Z,11.28
2022-11-16T00:42:55.916Z,11.28
2022-11-16T00:45:25.119Z,11.28
2022-11-16T00:48:00.257Z,11.27
2022-11-16T00:50:34.757Z,11.28
2022-11-16T00:53:07.837Z,11.29
2022-11-16T00:55:37.658Z,11.31
2022-11-16T00:58:06.425Z,11.26
2022-11-16T01:00:32.952Z,11.21
2022-11-16T01:03:01.897Z,11.20
2022-11-16T01:05:28.573Z,11.23
2022-11-16T01:07:55.510Z,11.25
2022-11-16T01:10:25.370Z,11.28
2022-11-16T01:12:56.617Z,11.24
2022-11-16T01:15:26.848Z,11.25
2022-11-16T01:17:54.292Z,11.25
2022-11-16T01:20:23.798Z,11.25
2022-11-16T01:22:50.401Z,11.21
2022-11-16T01:25:16.977Z,11.19
2022-11-16T01:27:43.871Z,11.22
2022-11-16T01:30:21.882Z,11.21
2022-11-16T01:32:58.726Z,11.22
2022-11-16T01:35:28.318Z,11.23
2022-11-16T01:37:54.945Z,11.25
2022-11-16T01:40:24.036Z,11.26
2022-11-16T01:42:50.647Z,11.22
2022-11-16T01:45:26.158Z,11.17
2022-11-16T01:47:55.798Z,11.13
2022-11-16T01:50:26.737Z,11.12
2022-11-16T01:53:02.572Z,11.03
2022-11-16T01:55:34.894Z,10.97
2022-11-16T01:58:15.934Z,10.95
2022-11-16T02:00:42.659Z,10.94
2022-11-16T02:03:29.468Z,10.97
2022-11-16T02:06:02.854Z,11.01
2022-11-16T02:09:04.528Z,11.01
2022-11-16T02:11:40.312Z,11.05
2022-11-16T02:14:29.456Z,11.08
2022-11-16T02:17:04.305Z,11.13
2022-11-16T02:19:51.471Z,11.15
2022-11-16T02:22:38.689Z,11.14
2022-11-16T02:25:08.880Z,11.10
2022-11-16T02:27:54.242Z,11.10
2022-11-16T02:30:22.305Z,11.12
2022-11-16T02:32:57.234Z,11.13
2022-11-16T02:35:31.589Z,11.16
2022-11-16T02:38:11.305Z,11.17
2022-11-16T02:40:38.569Z,11.15
2022-11-16T02:43:06.856Z,11.13
2022-11-16T02:45:42.173Z,11.13
2022-11-16T02:48:10.749Z,11.19
2022-11-16T02:50:39.915Z,11.19
2022-11-16T02:53:06.471Z,11.22
2022-11-16T02:55:34.829Z,11.22
2022-11-16T02:58:02.037Z,11.19
2022-11-16T03:00:53.097Z,11.13
2022-11-16T03:03:29.899Z,11.13
2022-11-16T03:06:00.299Z,11.10
2022-11-16T03:08:32.492Z,11.03
2022-11-16T03:11:25.536Z,11.03
2022-11-16T03:13:55.750Z,11.06
2022-11-16T03:16:23.776Z,11.07
2022-11-16T03:18:50.366Z,11.11
2022-11-16T03:21:35.743Z,11.17
2022-11-16T03:24:04.933Z,11.15
2022-11-16T03:26:33.429Z,11.09
2022-11-16T03:29:06.730Z,11.04
2022-11-16T03:31:35.135Z,11.02
2022-11-16T03:34:06.274Z,11.02
2022-11-16T03:36:36.961Z,11.04
2022-11-16T03:39:05.385Z,11.08
2022-11-16T03:41:36.366Z,11.07
2022-11-16T03:44:05.387Z,11.08
2022-11-16T03:46:31.924Z,11.10
2022-11-16T03:48:59.390Z,11.13
2022-11-16T03:51:29.360Z,11.17
2022-11-16T03:53:56.739Z,11.18
2022-11-16T03:56:23.497Z,11.23
2022-11-16T03:58:52.305Z,11.24
2022-11-16T04:01:18.914Z,11.25
2022-11-16T04:03:47.296Z,11.21
2022-11-16T04:06:36.384Z,11.19
2022-11-16T04:09:28.842Z,11.20
2022-11-16T04:12:17.020Z,11.19
2022-11-16T04:15:02.472Z,11.24
2022-11-16T04:17:50.009Z,11.24
2022-11-16T04:20:35.303Z,11.28
2022-11-16T04:23:23.958Z,11.29
2022-11-16T04:25:51.464Z,11.32
2022-11-16T04:28:22.587Z,11.32
2022-11-16T04:31:17.694Z,11.37
2022-11-16T04:34:10.808Z,11.35
2022-11-16T04:36:59.973Z,11.34
2022-11-16T04:39:28.116Z,11.34
2022-11-16T04:42:13.432Z,11.34
2022-11-16T04:44:59.388Z,11.35
2022-11-16T04:47:31.169Z,11.37
2022-11-16T04:49:57.744Z,11.39
2022-11-16T04:52:24.997Z,11.38
2022-11-16T04:54:53.615Z,11.36
2022-11-16T04:57:21.482Z,11.36
2022-11-16T04:59:49.444Z,11.35
2022-11-16T05:02:18.859Z,11.36
2022-11-16T05:04:52.766Z,11.36
2022-11-16T05:07:23.149Z,11.39
2022-11-16T05:09:55.460Z,11.40
2022-11-16T05:12:27.036Z,11.42
2022-11-16T05:14:59.952Z,11.45
2022-11-16T05:17:29.723Z,11.44
2022-11-16T05:20:17.466Z,11.44
2022-11-16T05:22:56.960Z,11.45
2022-11-16T05:25:26.266Z,11.46
2022-11-16T05:27:53.731Z,11.46
2022-11-16T05:30:23.150Z,11.45
2022-11-16T05:32:52.207Z,11.47
2022-11-16T05:35:20.419Z,11.44
2022-11-16T05:37:47.001Z,11.41
2022-11-16T05:40:16.347Z,11.37
2022-11-16T05:42:57.720Z,11.35
2022-11-16T05:45:25.919Z,11.36
2022-11-16T05:47:52.503Z,11.39
2022-11-16T05:50:23.956Z,11.41
2022-11-16T05:53:03.555Z,11.40
2022-11-16T05:55:30.133Z,11.40
2022-11-16T05:57:56.722Z,11.37
2022-11-16T06:00:25.676Z,11.32
2022-11-16T06:02:58.552Z,11.32
2022-11-16T06:05:29.415Z,11.33
2022-11-16T06:07:59.032Z,11.32
2022-11-16T06:10:26.151Z,11.32
2022-11-16T06:12:53.684Z,11.34
2022-11-16T06:15:26.286Z,11.36
2022-11-16T06:18:00.204Z,11.41
2022-11-16T06:20:33.627Z,11.45
2022-11-16T06:23:00.786Z,11.45
2022-11-16T06:25:30.890Z,11.46
2022-11-16T06:28:01.911Z,11.49
2022-11-16T06:30:32.188Z,11.48
2022-11-16T06:32:58.868Z,11.48
2022-11-16T06:35:27.879Z,11.50
2022-11-16T06:37:55.458Z,11.49
2022-11-16T06:40:25.461Z,11.49
2022-11-16T06:42:54.443Z,11.48
2022-11-16T06:45:21.006Z,11.52
2022-11-16T06:47:51.282Z,11.51
2022-11-16T06:50:19.312Z,11.52
2022-11-16T06:52:46.923Z,11.56
2022-11-16T06:55:13.706Z,11.60
2022-11-16T06:57:42.464Z,11.61
2022-11-16T07:00:10.524Z,11.61
2022-11-16T07:02:38.064Z,11.63
2022-11-16T07:05:10.905Z,11.63
2022-11-16T07:07:38.747Z,11.67
2022-11-16T07:10:07.886Z,11.70
2022-11-16T07:12:36.083Z,11.70
2022-11-16T07:15:05.078Z,11.75
2022-11-16T07:17:33.542Z,11.76
2022-11-16T07:20:00.425Z,11.74
2022-11-16T07:22:28.126Z,11.72
2022-11-16T07:24:54.855Z,11.71
2022-11-16T07:27:24.990Z,11.65
2022-11-16T07:29:55.048Z,11.64
2022-11-16T07:32:40.400Z,11.69
2022-11-16T07:35:10.086Z,11.71
2022-11-16T07:37:38.030Z,11.73
2022-11-16T07:40:05.877Z,11.71
2022-11-16T07:42:32.539Z,11.72
2022-11-16T07:45:28.742Z,11.76
2022-11-16T07:48:04.669Z,11.83
2022-11-16T07:50:51.148Z,11.81
2022-11-16T07:53:21.122Z,11.72
2022-11-16T07:55:53.993Z,11.74
2022-11-16T07:58:21.899Z,11.80
2022-11-16T08:00:49.368Z,11.86
2022-11-16T08:03:24.616Z,11.88
2022-11-16T08:05:57.972Z,11.89
2022-11-16T08:08:26.937Z,11.95
2022-11-16T08:10:59.205Z,11.99
2022-11-16T08:13:26.221Z,12.05
2022-11-16T08:15:52.861Z,12.11
2022-11-16T08:18:23.128Z,12.13
2022-11-16T08:20:50.989Z,12.16
2022-11-16T08:23:19.887Z,12.17
2022-11-16T08:25:49.012Z,12.15
2022-11-16T08:28:15.637Z,12.15
2022-11-16T08:30:42.815Z,12.15
2022-11-16T08:33:11.984Z,12.17
2022-11-16T08:35:38.648Z,12.16
2022-11-16T08:38:05.744Z,12.20
2022-11-16T08:40:33.459Z,12.21
2022-11-16T08:43:00.002Z,12.22
2022-11-16T08:45:27.491Z,12.23
2022-11-16T08:48:03.433Z,12.25
2022-11-16T08:50:33.483Z,12.25
2022-11-16T08:53:11.082Z,12.28
2022-11-16T08:55:37.652Z,12.28
2022-11-16T08:58:04.287Z,12.31
2022-11-16T09:00:31.357Z,12.33
2022-11-16T09:03:00.707Z,12.34
2022-11-16T09:05:29.377Z,12.32
2022-11-16T09:07:56.135Z,12.30
2022-11-16T09:10:26.031Z,12.32
2022-11-16T09:12:56.183Z,12.36
2022-11-16T09:15:24.942Z,12.38
2022-11-16T09:17:54.867Z,12.40
2022-11-16T09:20:23.913Z,12.42
2022-11-16T09:22:50.507Z,12.48
2022-11-16T09:25:19.089Z,12.47
2022-11-16T09:27:46.671Z,12.50
2022-11-16T09:30:13.732Z,12.50
2022-11-16T09:32:42.802Z,12.49
2022-11-16T09:35:14.012Z,12.50
2022-11-16T09:37:43.068Z,12.49
2022-11-16T09:40:12.099Z,12.50
2022-11-16T09:42:44.675Z,12.53
2022-11-16T09:45:16.702Z,12.56
2022-11-16T09:47:45.549Z,12.56
2022-11-16T09:50:17.872Z,12.58
2022-11-16T09:52:45.235Z,12.63
2022-11-16T09:55:35.246Z,12.65
2022-11-16T09:58:02.284Z,12.67
2022-11-16T10:00:28.794Z,12.67
2022-11-16T10:02:58.766Z,12.62
2022-11-16T10:05:25.591Z,12.61
2022-11-16T10:07:55.348Z,12.64
2022-11-16T10:10:34.965Z,12.65
2022-11-16T10:13:19.873Z,12.66
2022-11-16T10:15:57.528Z,12.65
2022-11-16T10:18:29.797Z,12.62
2022-11-16T10:21:15.997Z,12.57
2022-11-16T10:24:01.521Z,12.58
2022-11-16T10:26:43.307Z,12.62
2022-11-16T10:29:10.469Z,12.63
2022-11-16T10:31:42.322Z,12.64
2022-11-16T10:34:08.861Z,12.60
2022-11-16T10:36:37.776Z,12.57
2022-11-16T10:39:10.803Z,12.61
2022-11-16T10:41:38.305Z,12.66
2022-11-16T10:44:11.262Z,12.64
2022-11-16T10:46:39.997Z,12.65
2022-11-16T10:49:18.407Z,12.68
2022-11-16T10:51:47.461Z,12.71
2022-11-16T10:54:16.914Z,12.68
2022-11-16T10:56:49.771Z,12.68
2022-11-16T10:59:18.512Z,12.66
2022-11-16T11:01:54.132Z,12.68
2022-11-16T11:04:20.916Z,12.70
2022-11-16T11:06:48.853Z,12.70
2022-11-16T11:09:16.631Z,12.72
2022-11-16T11:12:01.942Z,12.76
2022-11-16T11:14:32.554Z,12.80
2022-11-16T11:17:10.579Z,12.83
2022-11-16T11:19:37.175Z,12.85
2022-11-16T11:22:04.213Z,12.87
2022-11-16T11:24:48.266Z,12.93
2022-11-16T11:27:14.799Z,12.92
2022-11-16T11:29:43.749Z,12.93
2022-11-16T11:32:15.963Z,12.93
2022-11-16T11:34:47.491Z,12.91
2022-11-16T11:37:17.619Z,12.90
2022-11-16T11:39:44.300Z,12.85
2022-11-16T11:42:13.346Z,12.80
2022-11-16T11:44:43.528Z,12.78
2022-11-16T11:47:56.713Z,12.74
2022-11-16T11:50:16.654Z,12.73
2022-11-16T11:53:02.124Z,12.76
2022-11-16T11:55:28.717Z,12.82
2022-11-16T11:57:55.363Z,12.84
2022-11-16T12:00:22.326Z,12.87
2022-11-16T12:03:04.231Z,12.86
2022-11-16T12:05:36.786Z,12.85
2022-11-16T12:08:17.196Z,12.86
2022-11-16T12:10:55.288Z,12.85
2022-11-16T12:13:42.540Z,12.86
2022-11-16T12:16:24.257Z,12.88
2022-11-16T12:18:53.341Z,12.84
2022-11-16T12:21:25.923Z,12.85
2022-11-16T12:24:07.104Z,12.85
2022-11-16T12:26:39.074Z,12.82
2022-11-16T12:29:11.705Z,12.81
2022-11-16T12:31:43.889Z,12.83
2022-11-16T12:34:26.347Z,12.77
2022-11-16T12:37:09.555Z,12.72
2022-11-16T12:39:41.891Z,12.73
2022-11-16T12:42:08.389Z,12.74
2022-11-16T12:44:37.390Z,12.68
2022-11-16T12:47:35.537Z,12.66
2022-11-16T12:50:11.505Z,12.71
2022-11-16T12:52:41.027Z,12.76
2022-11-16T12:55:25.868Z,12.76
2022-11-16T12:58:12.277Z,12.76
2022-11-16T13:00:50.554Z,12.75
2022-11-16T13:03:17.355Z,12.75
2022-11-16T13:05:49.188Z,12.76
2022-11-16T13:08:23.113Z,12.75
2022-11-16T13:10:53.060Z,12.76
2022-11-16T13:13:39.362Z,12.73
2022-11-16T13:16:06.694Z,12.70
2022-11-16T13:18:33.570Z,12.70
2022-11-16T13:21:02.298Z,12.66
2022-11-16T13:23:32.020Z,12.68
2022-11-16T13:26:10.161Z,12.71
2022-11-16T13:28:38.641Z,12.70
2022-11-16T13:31:15.271Z,12.72
2022-11-16T13:33:50.665Z,12.74
2022-11-16T13:36:45.711Z,12.75
2022-11-16T13:39:17.090Z,12.61
2022-11-16T13:41:49.954Z,12.50
2022-11-16T13:44:17.754Z,12.47
2022-11-16T13:46:55.878Z,12.45
2022-11-16T13:49:33.248Z,12.46
2022-11-16T13:52:11.601Z,12.48
2022-11-16T13:54:48.342Z,12.45
2022-11-16T13:57:22.757Z,12.41
2022-11-16T13:59:56.224Z,12.36
2022-11-16T14:02:28.725Z,12.37
2022-11-16T14:04:55.964Z,12.35
2022-11-16T14:07:55.111Z,12.34
2022-11-16T14:10:46.273Z,12.27
2022-11-16T14:13:33.567Z,12.19
2022-11-16T14:16:32.199Z,12.23
2022-11-16T14:19:01.958Z,12.20
2022-11-16T14:21:48.654Z,12.22
2022-11-16T14:24:37.502Z,12.27
2022-11-16T14:27:09.695Z,12.18
2022-11-16T14:29:39.382Z,12.18
2022-11-16T14:32:08.703Z,12.21
2022-11-16T14:34:41.404Z,12.18
2022-11-16T14:37:31.029Z,12.14
2022-11-16T14:40:07.869Z,12.12
2022-11-16T14:43:09.540Z,12.07
2022-11-16T14:45:34.106Z,12.02
2022-11-16T14:48:03.679Z,12.06
2022-11-16T14:50:36.658Z,12.11
2022-11-16T14:53:11.494Z,12.15
2022-11-16T14:55:45.027Z,12.09
2022-11-16T14:58:23.616Z,12.06
2022-11-16T15:00:53.771Z,12.05
2022-11-16T15:03:21.891Z,12.07
2022-11-16T15:05:50.492Z,12.11
2022-11-16T15:08:21.577Z,12.10
2022-11-16T15:10:53.479Z,12.00
2022-11-16T15:13:22.923Z,12.02
2022-11-16T15:15:50.414Z,12.06
2022-11-16T15:18:18.454Z,12.09
2022-11-16T15:20:50.257Z,12.06
2022-11-16T15:23:16.872Z,12.06
2022-11-16T15:25:45.840Z,12.06
2022-11-16T15:28:20.960Z,12.01
2022-11-16T15:30:51.158Z,11.92
2022-11-16T15:33:18.341Z,11.89
2022-11-16T15:35:47.365Z,11.88
2022-11-16T15:38:17.996Z,11.87
2022-11-16T15:40:50.869Z,11.91
2022-11-16T15:43:29.641Z,11.96
2022-11-16T15:45:56.180Z,12.02
2022-11-16T15:48:25.581Z,12.05
2022-11-16T15:51:05.289Z,11.99
2022-11-16T15:53:36.580Z,12.00
2022-11-16T15:56:04.077Z,11.94
2022-11-16T15:58:30.646Z,11.94
2022-11-16T16:00:58.499Z,11.86
2022-11-16T16:03:27.883Z,11.85
2022-11-16T16:05:57.304Z,11.89
2022-11-16T16:08:33.824Z,11.90
2022-11-16T16:11:06.575Z,11.83
2022-11-16T16:13:34.660Z,11.78
2022-11-16T16:16:22.097Z,11.62
2022-11-16T16:18:49.641Z,11.59
2022-11-16T16:21:16.372Z,11.62
2022-11-16T16:23:47.219Z,11.70
2022-11-16T16:26:16.635Z,11.71
2022-11-16T16:28:46.633Z,11.76
2022-11-16T16:31:13.245Z,11.80
2022-11-16T16:33:39.976Z,11.86
2022-11-16T16:36:11.480Z,11.92
2022-11-16T16:38:40.268Z,11.94
2022-11-16T16:41:07.097Z,11.92
2022-11-16T16:43:36.378Z,11.93
2022-11-16T16:46:03.577Z,11.95
2022-11-16T16:48:30.542Z,11.99
2022-11-16T16:50:57.177Z,12.04
2022-11-16T16:53:24.591Z,11.94
2022-11-16T16:55:56.047Z,11.94
2022-11-16T16:58:24.972Z,11.94
2022-11-16T17:00:54.598Z,11.94
2022-11-16T17:03:23.486Z,11.95
2022-11-16T17:05:50.641Z,11.95
2022-11-16T17:08:17.139Z,11.92
2022-11-16T17:10:43.705Z,11.94
2022-11-16T17:13:10.376Z,11.91
2022-11-16T17:15:39.439Z,11.89
2022-11-16T17:18:05.978Z,11.86
2022-11-16T17:20:32.607Z,11.85
2022-11-16T17:23:01.443Z,11.83
2022-11-16T17:25:28.063Z,11.81
2022-11-16T17:27:54.584Z,11.88
2022-11-16T17:30:21.198Z,11.96
2022-11-16T17:32:47.716Z,12.01
2022-11-16T17:35:14.360Z,12.02
2022-11-16T17:37:43.441Z,12.04
2022-11-16T17:40:10.493Z,12.01
2022-11-16T17:42:37.123Z,12.01
2022-11-16T17:45:03.868Z,11.99
2022-11-16T17:47:31.392Z,11.98
2022-11-16T17:49:57.993Z,11.83
2022-11-16T17:52:24.817Z,11.86
2022-11-16T17:54:51.418Z,11.85
2022-11-16T17:57:19.989Z,11.77
2022-11-16T17:59:47.775Z,11.69
2022-11-16T18:02:14.249Z,11.69
2022-11-16T18:04:40.973Z,11.66
2022-11-16T18:07:09.990Z,11.66
2022-11-16T18:09:39.115Z,11.66
2022-11-16T18:12:05.686Z,11.62
2022-11-16T18:14:34.724Z,11.67
2022-11-16T18:17:01.855Z,11.70
2022-11-16T18:19:30.766Z,11.69
2022-11-16T18:21:57.651Z,11.74
2022-11-16T18:24:25.326Z,11.81
2022-11-16T18:26:54.522Z,11.81
2022-11-16T18:29:23.244Z,11.81
2022-11-16T18:31:51.705Z,11.78
2022-11-16T18:34:19.411Z,11.82
2022-11-16T18:36:48.882Z,11.86
2022-11-16T18:39:15.430Z,11.82
2022-11-16T18:41:53.434Z,11.86
2022-11-16T18:44:28.147Z,11.87
2022-11-16T18:46:54.698Z,11.84
2022-11-16T18:49:21.210Z,11.84
2022-11-16T18:51:50.606Z,11.87
2022-11-16T18:54:17.106Z,11.87
2022-11-16T18:56:44.005Z,11.90
2022-11-16T18:59:10.630Z,11.86
2022-11-16T19:01:39.668Z,11.80
2022-11-16T19:04:07.600Z,11.76
2022-11-16T19:06:34.227Z,11.81
2022-11-16T19:09:01.120Z,11.85
2022-11-16T19:11:28.573Z,11.85
2022-11-16T19:13:56.394Z,11.83
2022-11-16T19:16:23.754Z,11.87
2022-11-16T19:18:50.406Z,11.91
2022-11-16T19:21:22.003Z,11.93
2022-11-16T19:23:52.282Z,11.93
2022-11-16T19:26:23.065Z,11.93
2022-11-16T19:28:54.679Z,11.94
2022-11-16T19:31:23.792Z,11.93
2022-11-16T19:33:56.154Z,11.92
2022-11-16T19:36:23.006Z,11.97
2022-11-16T19:38:49.932Z,11.99
2022-11-16T19:41:23.427Z,12.04
2022-11-16T19:43:52.475Z,12.05
2022-11-16T19:46:23.240Z,12.06
2022-11-16T19:48:50.209Z,12.06
2022-11-16T19:51:18.861Z,12.03
2022-11-16T19:53:45.649Z,12.04
2022-11-16T19:56:18.121Z,12.06
2022-11-16T19:58:44.887Z,12.02
2022-11-16T20:01:21.573Z,11.98
2022-11-16T20:03:48.682Z,11.85
2022-11-16T20:06:17.720Z,11.87
2022-11-16T20:08:51.465Z,11.88
2022-11-16T20:11:21.165Z,11.85
2022-11-16T20:13:48.299Z,11.85
2022-11-16T20:16:15.035Z,11.85
2022-11-16T20:18:42.121Z,11.83
2022-11-16T20:21:09.324Z,11.82
2022-11-16T20:23:37.542Z,11.82
2022-11-16T20:26:10.127Z,11.83
2022-11-16T20:28:40.041Z,11.83
2022-11-16T20:31:10.152Z,11.81
2022-11-16T20:33:45.819Z,11.70
2022-11-16T20:36:13.347Z,11.72
2022-11-16T20:38:40.134Z,11.79
2022-11-16T20:41:12.224Z,11.84
2022-11-16T20:43:39.380Z,11.89
2022-11-16T20:46:09.696Z,11.84
2022-11-16T20:48:36.580Z,11.87
2022-11-16T20:51:06.567Z,11.87
2022-11-16T20:53:35.799Z,11.88
2022-11-16T20:56:03.736Z,11.92
2022-11-16T20:58:30.943Z,11.93
2022-11-16T21:01:08.028Z,11.96
2022-11-16T21:03:35.310Z,11.99
2022-11-16T21:06:02.567Z,11.89
2022-11-16T21:08:30.096Z,11.85
2022-11-16T21:11:02.899Z,11.86
2022-11-16T21:13:51.027Z,11.87
2022-11-16T21:16:20.037Z,11.83
2022-11-16T21:18:46.838Z,11.83
2022-11-16T21:21:21.477Z,11.81
2022-11-16T21:23:54.089Z,11.83
2022-11-16T21:26:24.621Z,11.84
2022-11-16T21:28:51.427Z,11.87
2022-11-16T21:31:19.198Z,11.86
2022-11-16T21:33:48.460Z,11.69
2022-11-16T21:36:16.243Z,11.66
2022-11-16T21:38:43.256Z,11.65
2022-11-16T21:41:12.698Z,11.63
2022-11-16T21:43:41.113Z,11.58
2022-11-16T21:46:13.535Z,11.56
2022-11-16T21:48:40.299Z,11.54
2022-11-16T21:51:09.702Z,11.55
2022-11-16T21:53:39.176Z,11.55
2022-11-16T21:56:10.242Z,11.60
2022-11-16T21:58:40.553Z,11.62
2022-11-16T22:01:10.084Z,11.51
2022-11-16T22:03:37.533Z,11.51
2022-11-16T22:06:23.626Z,11.53
2022-11-16T22:08:54.842Z,11.54
2022-11-16T22:11:22.256Z,11.59
2022-11-16T22:13:49.444Z,11.50
2022-11-16T22:16:23.487Z,11.53
2022-11-16T22:18:50.298Z,11.50
2022-11-16T22:21:19.560Z,11.54
2022-11-16T22:23:48.457Z,11.55
2022-11-16T22:26:15.337Z,11.60
2022-11-16T22:28:44.219Z,11.61
2022-11-16T22:31:16.311Z,11.55
2022-11-16T22:33:45.906Z,11.59
2022-11-16T22:36:15.073Z,11.45
2022-11-16T22:38:41.975Z,11.46
2022-11-16T22:41:09.124Z,11.51
2022-11-16T22:43:39.099Z,11.57
2022-11-16T22:46:06.144Z,11.59
2022-11-16T22:48:33.217Z,11.54
2022-11-16T22:51:22.821Z,11.51
2022-11-16T22:53:56.010Z,11.54
2022-11-16T22:56:22.849Z,11.58
2022-11-16T22:58:49.338Z,11.62
2022-11-16T23:01:15.817Z,11.58
2022-11-16T23:03:42.562Z,11.53
2022-11-16T23:06:09.156Z,11.46
2022-11-16T23:08:35.786Z,11.35
2022-11-16T23:11:20.895Z,11.39
2022-11-16T23:14:06.342Z,11.42
2022-11-16T23:16:33.207Z,11.43
2022-11-16T23:19:00.225Z,11.46
2022-11-16T23:21:45.508Z,11.47
2022-11-16T23:24:31.156Z,11.51
2022-11-16T23:27:18.774Z,11.50
2022-11-16T23:29:49.907Z,11.51
2022-11-16T23:32:16.444Z,11.53
2022-11-16T23:34:42.939Z,11.50
2022-11-16T23:37:11.837Z,11.45
2022-11-16T23:39:38.353Z,11.50
2022-11-16T23:42:26.745Z,11.42
2022-11-16T23:44:53.253Z,11.30
2022-11-16T23:47:19.748Z,11.24
2022-11-16T23:49:51.656Z,11.06
2022-11-16T23:52:20.698Z,11.04
2022-11-16T23:54:49.598Z,11.08
2022-11-16T23:57:18.220Z,11.14
2022-11-16T23:59:44.805Z,11.06
